Time;durP1;ratioP1;P1;durP2;ratioP2;P2;SDS_P1;SDS_P2;PMS_P1;PMS_P2;Temp;Humidity;BMP_temperature;BMP_pressure;BME280_temperature;BME280_humidity;BME280_pressure;Samples;Min_cycle;Max_cycle;Signal;HPM_P1;HPM_P2
2022/11/16 00:01:32;;;;;;;22.82;16.52;;;;;;;6.19;100.00;99019.03;1748076;79;21008;-73
2022/11/16 00:04:00;;;;;;;19.62;15.48;;;;;;;6.25;100.00;99013.92;1691306;83;21118;-73
2022/11/16 00:06:27;;;;;;;20.23;16.15;;;;;;;6.25;100.00;99013.39;1694567;83;20975;-73
2022/11/16 00:11:42;;;;;;;21.37;16.75;;;;;;;6.24;100.00;99012.29;1743460;79;21878;-73
2022/11/16 00:14:08;;;;;;;;;;;;;;;6.31;100.00;99011.52;1760830;80;21073;-73
2022/11/16 00:16:35;;;;;;;20.77;16.35;;;;;;;6.38;100.00;99001.28;1733849;80;20153;-73
2022/11/16 00:19:03;;;;;;;;;;;;;;;6.32;100.00;99005.87;1749761;80;21089;-74
2022/11/16 00:21:32;;;;;;;23.32;16.75;;;;;;;6.33;100.00;99010.73;1734569;80;20209;-73
2022/11/16 00:23:58;;;;;;;22.05;15.75;;;;;;;6.26;100.00;99008.80;1731347;80;21629;-74
2022/11/16 00:26:25;;;;;;;22.10;16.02;;;;;;;6.34;100.00;99002.35;1758500;79;21660;-74
2022/11/16 00:28:53;;;;;;;19.50;15.18;;;;;;;6.42;100.00;99000.51;1760081;79;21113;-74
2022/11/16 00:31:19;;;;;;;19.57;15.38;;;;;;;6.46;100.00;98995.39;1742109;81;21098;-73
2022/11/16 00:33:46;;;;;;;19.12;15.53;;;;;;;6.46;100.00;98996.21;1720169;82;21673;-74
2022/11/16 00:36:13;;;;;;;22.15;17.65;;;;;;;6.41;100.00;98988.06;1755426;79;21041;-73
2022/11/16 00:38:39;;;;;;;;;;;;;;;6.39;100.00;98994.28;1721485;82;21070;-73
2022/11/16 00:41:07;;;;;;;19.75;15.32;;;;;;;6.41;100.00;98985.36;1687324;84;20131;-73
2022/11/16 00:43:34;;;;;;;20.77;16.52;;;;;;;6.41;100.00;98975.11;1715239;82;21421;-73
2022/11/16 00:46:00;;;;;;;22.50;16.67;;;;;;;6.45;100.00;98975.64;1684742;83;21014;-73
2022/11/16 00:48:27;;;;;;;21.27;17.07;;;;;;;6.40;100.00;98971.59;1688144;83;20987;-73
2022/11/16 00:50:54;;;;;;;23.12;16.70;;;;;;;6.31;100.00;98977.20;1709259;82;20972;-74
2022/11/16 00:53:21;;;;;;;21.10;16.73;;;;;;;6.29;100.00;98972.61;1687870;84;21033;-73
2022/11/16 00:55:49;;;;;;;21.57;16.02;;;;;;;6.33;100.00;98968.84;1709379;82;21490;-73
2022/11/16 00:58:17;;;;;;;20.80;17.12;;;;;;;6.32;100.00;98959.09;1708826;82;21023;-73
2022/11/16 01:00:47;;;;;;;24.37;18.52;;;;;;;6.27;100.00;98965.84;1709185;82;21118;-73
2022/11/16 01:03:13;;;;;;;24.07;17.42;;;;;;;6.23;100.00;98952.58;1735930;80;21034;-73
2022/11/16 01:05:41;;;;;;;24.57;18.80;;;;;;;6.25;100.00;98953.11;1753020;79;21085;-73
2022/11/16 01:08:07;;;;;;;;;;;;;;;6.31;100.00;98949.34;1742033;80;21050;-73
2022/11/16 01:10:38;;;;;;;23.80;16.85;;;;;;;6.36;100.00;98952.91;1764796;79;20155;-74
2022/11/16 01:13:06;;;;;;;22.73;16.97;;;;;;;6.25;100.00;98951.23;1746860;80;21540;-73
2022/11/16 01:15:33;;;;;;;23.40;17.95;;;;;;;6.19;100.00;98945.53;1762313;79;21056;-73
2022/11/16 01:18:00;;;;;;;25.23;17.60;;;;;;;6.14;100.00;98944.67;1740482;80;21014;-73
2022/11/16 01:20:27;;;;;;;23.98;17.25;;;;;;;6.15;100.00;98942.25;1685745;83;21134;-73
2022/11/16 01:22:54;;;;;;;25.62;16.97;;;;;;;6.21;100.00;98942.02;1717915;82;21109;-73
2022/11/16 01:25:22;;;;;;;22.22;16.45;;;;;;;6.23;100.00;98937.17;1703261;82;22438;-73
2022/11/16 01:27:49;;;;;;;23.38;16.95;;;;;;;6.23;100.00;98934.47;1746513;80;21038;-73
2022/11/16 01:30:17;;;;;;;25.15;18.73;;;;;;;6.22;100.00;98942.83;1765692;79;21199;-73
2022/11/16 01:32:46;;;;;;;23.57;16.97;;;;;;;6.19;100.00;98932.55;1744467;80;21120;-73
2022/11/16 01:35:15;;;;;;;23.47;17.35;;;;;;;6.22;100.00;98933.37;1741695;80;22278;-73
2022/11/16 01:37:42;;;;;;;25.65;17.95;;;;;;;6.31;100.00;98933.95;1738438;80;21038;-73
2022/11/16 01:40:11;;;;;;;25.17;18.80;;;;;;;6.31;100.00;98934.48;1722066;81;21094;-73
2022/11/16 01:42:39;;;;;;;28.80;18.35;;;;;;;6.22;100.00;98930.14;1759974;80;21015;-73
2022/11/16 01:45:31;;;;;;;26.80;19.25;;;;;;;6.25;100.00;98934.19;1759781;80;21165;-74
2022/11/16 01:47:58;;;;;;;24.77;17.02;;;;;;;6.30;100.00;98927.47;1734939;80;21465;-73
2022/11/16 01:50:26;;;;;;;24.63;17.77;;;;;;;6.32;100.00;98936.13;1737019;80;21112;-73
2022/11/16 01:53:01;;;;;;;24.55;18.30;;;;;;;6.30;100.00;98933.70;1733450;80;21536;-73
2022/11/16 01:55:32;;;;;;;25.23;19.40;;;;;;;6.26;100.00;98923.13;1732854;80;21085;-73
2022/11/16 01:58:00;;;;;;;28.10;18.67;;;;;;;6.24;100.00;98925.80;1741048;80;21392;-74
2022/11/16 02:00:27;;;;;;;21.77;17.27;;;;;;;6.26;100.00;98925.84;1717875;81;21069;-73
2022/11/16 02:02:56;;;;;;;24.07;18.30;;;;;;;6.34;100.00;98921.82;1730757;80;21603;-73
2022/11/16 02:05:39;;;;;;;26.02;18.42;;;;;;;6.34;100.00;98928.58;1741910;79;21080;-73
2022/11/16 02:11:49;;;;;;;27.55;18.52;;;;;;;6.28;100.00;98915.56;1748659;80;21053;-74
2022/11/16 02:14:40;;;;;;;23.60;17.40;;;;;;;6.34;100.00;98918.55;1750625;79;21113;-74
2022/11/16 02:17:48;;;;;;;26.57;18.30;;;;;;;6.39;100.00;98920.47;1743031;80;21584;-72
2022/11/16 02:20:43;;;;;;;;;;;;;;;6.38;100.00;98915.59;1747904;80;21782;-74
2022/11/16 02:23:45;;;;;;;25.85;19.25;;;;;;;6.26;100.00;98912.32;1748670;80;20188;-73
2022/11/16 02:26:47;;;;;;;27.95;18.60;;;;;;;6.12;100.00;98912.52;1742275;80;21494;-73
2022/11/16 02:29:45;;;;;;;26.10;18.23;;;;;;;6.12;100.00;98909.00;1737877;80;21458;-73
2022/11/16 02:32:32;;;;;;;24.70;17.00;;;;;;;6.18;100.00;98910.64;1719288;82;21146;-73
2022/11/16 02:35:11;;;;;;;25.30;18.10;;;;;;;6.19;100.00;98902.29;1752677;79;21109;-73
2022/11/16 02:37:48;;;;;;;24.77;19.07;;;;;;;6.17;100.00;98897.67;1751268;80;21623;-74
2022/11/16 02:40:16;;;;;;;25.00;18.48;;;;;;;6.12;100.00;98897.66;1690704;83;21064;-73
2022/11/16 02:42:57;;;;;;;24.18;18.27;;;;;;;6.18;100.00;98885.79;1696555;83;20971;-73
2022/11/16 02:45:27;;;;;;;26.75;17.80;;;;;;;6.28;100.00;98883.66;1696626;82;21142;-73
2022/11/16 02:47:58;;;;;;;24.57;17.55;;;;;;;6.32;100.00;98882.88;1691759;83;21011;-73
2022/11/16 02:50:24;;;;;;;25.68;18.15;;;;;;;6.36;100.00;98893.44;1695223;83;21438;-73
2022/11/16 02:52:54;;;;;;;24.27;18.48;;;;;;;6.34;100.00;98888.03;1767047;80;21718;-73
2022/11/16 02:55:22;;;;;;;26.48;17.17;;;;;;;6.34;100.00;98894.79;1755395;80;21058;-73
2022/11/16 02:57:54;;;;;;;25.88;17.62;;;;;;;6.33;100.00;98893.97;1741972;80;21023;-73
2022/11/16 03:00:24;;;;;;;24.12;17.87;;;;;;;6.34;100.00;98891.52;1745556;80;21632;-73
2022/11/16 03:03:22;;;;;;;24.12;17.25;;;;;;;6.40;100.00;98881.02;1752468;79;20983;-73
2022/11/16 03:05:54;;;;;;;28.95;20.55;;;;;;;6.44;100.00;98884.01;1741920;80;21073;-73
2022/11/16 03:08:34;;;;;;;27.93;19.45;;;;;;;6.42;100.00;98884.26;1738151;81;21002;-73
2022/11/16 03:13:56;;;;;;;25.37;17.82;;;;;;;6.49;100.00;98893.47;1770219;79;21530;-73
2022/11/16 03:16:30;;;;;;;25.75;17.75;;;;;;;6.58;100.00;98881.61;1758560;80;21659;-73
2022/11/16 03:18:58;;;;;;;24.50;17.87;;;;;;;6.64;100.00;98880.53;1735136;80;21667;-73
2022/11/16 03:21:38;;;;;;;27.65;18.65;;;;;;;6.62;100.00;98881.36;1742082;80;21085;-73
2022/11/16 03:24:05;;;;;;;27.13;19.17;;;;;;;6.63;100.00;98874.84;1744837;80;21139;-73
2022/11/16 03:26:43;;;;;;;24.25;17.85;;;;;;;6.69;100.00;98880.56;1669679;84;22296;-74
2022/11/16 03:29:20;;;;;;;23.10;17.77;;;;;;;6.79;100.00;98869.76;1656000;83;21194;-73
2022/11/16 03:31:51;;;;;;;25.10;18.05;;;;;;;6.84;100.00;98873.81;1689811;80;21061;-73
2022/11/16 03:34:19;;;;;;;26.57;19.45;;;;;;;6.81;100.00;98873.81;1764093;79;21183;-73
2022/11/16 03:36:47;;;;;;;27.17;19.25;;;;;;;6.77;100.00;98875.42;1730419;81;21041;-73
2022/11/16 03:39:30;;;;;;;25.65;18.27;;;;;;;6.78;100.00;98870.83;1756000;80;21094;-73
2022/11/16 03:41:58;;;;;;;25.40;19.07;;;;;;;6.82;100.00;98867.87;1747526;80;21058;-74
2022/11/16 03:44:25;;;;;;;26.10;19.30;;;;;;;6.81;100.00;98863.53;1736116;80;21068;-74
2022/11/16 03:46:52;;;;;;;27.07;20.48;;;;;;;6.74;100.00;98866.50;1749771;80;21078;-74
2022/11/16 03:49:22;;;;;;;;;;;;;;;6.71;100.00;98863.52;1769857;79;21078;-74
2022/11/16 03:51:50;;;;;;;28.32;20.43;;;;;;;6.70;100.00;98863.23;1748038;80;20545;-75
2022/11/16 03:54:17;;;;;;;26.37;18.90;;;;;;;6.67;100.00;98855.66;1775109;79;21160;-74
2022/11/16 03:56:43;;;;;;;27.22;18.75;;;;;;;6.64;100.00;98849.44;1755872;80;21623;-74
2022/11/16 03:59:10;;;;;;;24.82;18.60;;;;;;;6.60;100.00;98856.45;1742151;80;21094;-74
2022/11/16 04:01:38;;;;;;;25.27;18.73;;;;;;;6.53;100.00;98849.13;1707699;82;21078;-74
2022/11/16 04:04:05;;;;;;;24.57;16.90;;;;;;;6.53;100.00;98859.95;1712768;82;21808;-74
2022/11/16 04:25:54;;;;;;;30.37;19.75;;;;;;;6.60;100.00;98844.28;1682657;83;21117;-73
2022/11/16 04:28:23;;;;;;;;;;;;;;;6.57;100.00;98836.17;1731899;80;21028;-73
2022/11/16 04:39:09;;;;;;;28.52;20.60;;;;;;;6.63;100.00;98829.69;1767558;79;21096;-73
2022/11/16 04:44:21;;;;;;;25.50;18.40;;;;;;;6.59;100.00;98825.11;1743100;80;21039;-73
2022/11/16 04:47:06;;;;;;;27.93;19.02;;;;;;;6.65;100.00;98827.55;1760896;80;21524;-73
2022/11/16 04:49:32;;;;;;;28.27;19.77;;;;;;;6.63;100.00;98826.17;1763919;80;21117;-73
2022/11/16 04:51:59;;;;;;;31.25;20.92;;;;;;;6.53;100.00;98822.09;1739490;80;21097;-73
2022/11/16 04:54:27;;;;;;;27.10;20.02;;;;;;;6.46;100.00;98816.95;1751896;80;21561;-73
2022/11/16 04:56:53;;;;;;;;;;;;;;;6.47;100.00;98823.45;1747556;80;21097;-73
2022/11/16 04:59:20;;;;;;;27.17;20.12;;;;;;;6.57;100.00;98819.95;1719955;82;20435;-73
2022/11/16 05:04:32;;;;;;;34.18;21.50;;;;;;;6.55;100.00;98822.66;1743384;80;21126;-73
2022/11/16 05:06:58;;;;;;;;;;;;;;;6.46;100.00;98819.13;1752902;80;21615;-73
2022/11/16 05:09:25;;;;;;;;;;;;;;;6.42;100.00;98815.86;1761931;79;20162;-73
2022/11/16 05:11:52;;;;;;;;;;;;;;;6.27;100.00;98817.19;1748188;80;20169;-74
2022/11/16 05:14:19;;;;;;;;;;;;;;;6.17;100.00;98824.70;1741508;80;20167;-73
2022/11/16 05:16:45;;;;;;;;;;;;;;;6.06;100.00;98823.04;1767381;80;20132;-73
2022/11/16 05:21:57;;;;;;;;;;;;;;;6.11;100.00;98817.66;1770977;79;20215;-74
2022/11/16 05:24:33;;;;;;;;;;;;;;;6.19;100.00;98817.70;1760869;80;20186;-74
2022/11/16 05:27:05;;;;;;;;;;;;;;;6.22;100.00;98819.86;1747466;80;20153;-73
2022/11/16 05:29:33;;;;;;;;;;;;;;;6.18;100.00;98820.12;1733631;81;20570;-73
2022/11/16 05:32:00;;;;;;;;;;;;;;;6.14;100.00;98823.07;1742488;80;20142;-74
2022/11/16 05:34:27;;;;;;;;;;;;;;;6.11;100.00;98814.15;1747633;80;20415;-74
2022/11/16 05:36:53;;;;;;;;;;;;;;;6.07;100.00;98813.05;1758512;80;20135;-74
2022/11/16 05:39:19;;;;;;;;;;;;;;;6.09;100.00;98820.37;1748682;80;20116;-74
2022/11/16 05:41:47;;;;;;;;;;;;;;;6.10;100.00;98814.68;1723144;81;20535;-75
2022/11/16 05:44:13;;;;;;;;;;;;;;;6.10;100.00;98804.41;1761772;79;20119;-72
2022/11/16 05:46:41;;;;;;;;;;;;;;;6.12;100.00;98805.79;1733553;81;20182;-74
2022/11/16 05:49:09;;;;;;;;;;;;;;;6.10;100.00;98805.22;1749835;79;20175;-74
2022/11/16 05:51:37;;;;;;;;;;;;;;;6.06;100.00;98800.07;1757961;79;20169;-75
2022/11/16 05:54:03;;;;;;;;;;;;;;;6.02;100.00;98809.81;1754654;79;20429;-74
2022/11/16 05:56:30;;;;;;;;;;;;;;;6.03;100.00;98810.06;1773117;80;20180;-74
2022/11/16 05:58:57;;;;;;;;;;;;;;;6.10;100.00;98808.46;1739376;79;21050;-73
2022/11/16 06:01:24;;;;;;;;;;;;;;;6.16;100.00;98805.53;1756067;80;20488;-74
2022/11/16 06:03:50;;;;;;;;;;;;;;;6.19;100.00;98800.12;1739080;80;21055;-74
2022/11/16 06:06:19;;;;;;;;;;;;;;;6.18;100.00;98802.02;1743499;79;20480;-75
2022/11/16 06:08:45;;;;;;;;;;;;;;;6.18;100.00;98799.84;1751296;81;20130;-75
2022/11/16 06:11:15;;;;;;;;;;;;;;;6.16;100.00;98796.08;1757181;80;20187;-75
2022/11/16 06:13:42;;;;;;;;;;;;;;;6.25;100.00;98793.12;1768842;79;20221;-75
2022/11/16 06:16:08;;;;;;;;;;;;;;;6.31;100.00;98801.50;1774675;80;20149;-75
2022/11/16 12:29:01;;;;;;;23.15;14.47;;;;;;;3.76;100.00;98700.47;1799185;79;22288;-67
2022/11/16 12:31:51;;;;;;;12.78;8.93;;;;;;;3.85;100.00;98712.44;1724088;81;21097;-67
2022/11/16 12:34:40;;;;;;;14.15;8.60;;;;;;;4.11;100.00;98718.34;1720176;81;21898;-67
2022/11/16 12:37:17;;;;;;;12.27;8.23;;;;;;;4.28;100.00;98717.73;1719057;81;21623;-66
2022/11/16 12:40:06;;;;;;;12.03;7.90;;;;;;;4.40;100.00;98722.40;1719336;81;21177;-68
2022/11/16 12:42:56;;;;;;;10.82;7.90;;;;;;;4.54;100.00;98726.82;1723370;81;21998;-67
2022/11/16 12:45:49;;;;;;;11.53;8.03;;;;;;;4.59;100.00;98720.67;1670707;84;21142;-67
2022/11/16 12:48:56;;;;;;;10.63;8.13;;;;;;;4.69;100.00;98720.74;1684474;84;21138;-68
2022/11/16 12:51:49;;;;;;;12.30;7.10;;;;;;;4.74;100.00;98708.66;1719079;81;21038;-68
2022/11/16 12:54:51;;;;;;;11.70;8.33;;;;;;;4.80;100.00;98703.05;1718939;81;21050;-67
2022/11/16 12:57:43;;;;;;;11.40;8.00;;;;;;;4.84;100.00;98704.69;1723986;83;21078;-68
2022/11/16 13:00:17;;;;;;;12.43;8.83;;;;;;;4.88;100.00;98706.61;1724363;81;21129;-67
2022/11/16 13:03:28;;;;;;;10.48;7.70;;;;;;;4.89;100.00;98708.74;1719813;81;21398;-68
2022/11/16 13:06:01;;;;;;;11.22;7.95;;;;;;;4.90;100.00;98709.03;1723367;83;21421;-66
2022/11/16 13:08:46;;;;;;;10.40;7.65;;;;;;;4.95;100.00;98709.08;1722912;81;21539;-66
2022/11/16 13:11:34;;;;;;;11.53;8.00;;;;;;;4.93;100.00;98701.77;1709563;81;21081;-67
2022/11/16 13:14:05;;;;;;;11.43;9.00;;;;;;;4.96;100.00;98702.59;1722513;81;21058;-66
2022/11/16 13:16:32;;;;;;;15.05;8.83;;;;;;;4.92;100.00;98701.52;1718068;83;21410;-66
2022/11/16 13:18:59;;;;;;;14.45;9.35;;;;;;;4.96;100.00;98702.59;1678204;83;21143;-66
2022/11/16 13:21:44;;;;;;;;;;;;;;;4.94;100.00;98706.09;1738808;81;21538;-66
2022/11/16 13:24:57;;;;;;;13.30;8.98;;;;;;;4.98;100.00;98701.28;1742101;82;20107;-66
2022/11/16 13:27:35;;;;;;;15.10;9.38;;;;;;;4.88;100.00;98699.05;1686290;83;21034;-67
2022/11/16 13:30:25;;;;;;;13.95;8.85;;;;;;;4.87;100.00;98700.11;1710001;83;21090;-67
2022/11/16 13:33:43;;;;;;;11.73;7.42;;;;;;;4.89;100.00;98704.70;1691793;83;21002;-68
2022/11/16 13:36:42;;;;;;;10.93;8.20;;;;;;;4.86;100.00;98703.34;1712393;83;20986;-67
2022/11/16 13:39:19;;;;;;;9.80;7.30;;;;;;;4.86;100.00;98700.65;1705800;83;21090;-67
2022/11/16 13:41:50;;;;;;;9.55;7.03;;;;;;;4.80;100.00;98703.05;1696859;83;22813;-67
2022/11/16 13:44:22;;;;;;;9.50;7.10;;;;;;;4.79;100.00;98702.75;1705907;83;21160;-66
2022/11/16 13:46:58;;;;;;;9.95;6.83;;;;;;;4.80;100.00;98699.53;1708864;83;21137;-66
2022/11/16 13:49:37;;;;;;;8.95;6.90;;;;;;;4.79;100.00;98701.41;1704875;83;21726;-67
2022/11/16 13:52:08;;;;;;;8.73;6.58;;;;;;;4.81;100.00;98707.38;1701124;83;21036;-67
2022/11/16 13:54:41;;;;;;;7.70;5.70;;;;;;;4.76;100.00;98707.33;1710201;83;21591;-67
2022/11/16 13:57:31;;;;;;;9.15;5.92;;;;;;;4.76;100.00;98703.28;1707313;83;21109;-67
2022/11/16 14:00:08;;;;;;;7.80;5.70;;;;;;;4.75;100.00;98704.87;1691448;83;21077;-67
2022/11/16 14:02:40;;;;;;;7.20;5.35;;;;;;;4.73;100.00;98700.29;1686543;83;21050;-67
2022/11/16 14:05:34;;;;;;;9.90;5.78;;;;;;;4.74;100.00;98701.39;1668756;83;21573;-67
2022/11/16 18:00:11;;;;;;;8.95;6.25;;;;;;;0.74;100.00;98709.89;1758011;79;22252;-69
2022/11/16 18:02:38;;;;;;;4.80;3.25;;;;;;;0.82;100.00;98718.89;1683193;83;21019;-69
2022/11/16 18:05:05;;;;;;;;;;;;;;;1.04;100.00;98712.93;1704632;83;21043;-70
2022/11/16 18:07:32;;;;;;;3.75;2.47;;;;;;;1.20;100.00;98719.75;1703324;83;20130;-71
2022/11/16 18:09:58;;;;;;;;;;;;;;;1.32;100.00;98699.59;1704454;83;21059;-71
2022/11/16 18:12:25;;;;;;;4.80;2.30;;;;;;;1.38;100.00;98705.37;1670426;83;20159;-72
2022/11/16 18:14:59;;;;;;;;;;;;;;;1.45;100.00;98700.13;1709817;79;21098;-72
2022/11/16 18:17:35;;;;;;;4.87;2.77;;;;;;;1.49;100.00;98708.52;1690474;83;20414;-71
2022/11/16 18:20:03;;;;;;;4.25;2.55;;;;;;;1.55;100.00;98699.54;1682060;83;21057;-72
2022/11/16 18:22:30;;;;;;;4.20;2.80;;;;;;;1.61;100.00;98700.44;1679838;84;21566;-71
2022/11/16 18:24:56;;;;;;;4.22;2.52;;;;;;;1.62;100.00;98705.58;1676228;84;21052;-71
2022/11/16 18:27:22;;;;;;;4.62;3.10;;;;;;;1.67;100.00;98702.16;1682781;85;21083;-71
2022/11/16 18:29:52;;;;;;;;;;;;;;;1.65;100.00;98701.59;1660800;85;21100;-71
2022/11/16 18:32:19;;;;;;;4.37;2.90;;;;;;;1.69;100.00;98706.25;1670928;85;20135;-70
2022/11/16 18:34:45;;;;;;;4.15;2.60;;;;;;;1.65;100.00;98700.25;1680796;83;21100;-71
2022/11/16 18:37:12;;;;;;;;;;;;;;;1.60;100.00;98705.50;1683618;84;21078;-70
2022/11/16 18:39:38;;;;;;;5.20;3.00;;;;;;;1.63;100.00;98701.03;1685310;84;20175;-70
2022/11/16 18:42:05;;;;;;;4.42;2.47;;;;;;;1.59;100.00;98703.90;1681902;84;21486;-71
2022/11/16 18:44:31;;;;;;;4.42;2.83;;;;;;;1.55;100.00;98696.85;1682325;84;21098;-71
2022/11/16 18:46:58;;;;;;;4.50;2.98;;;;;;;1.58;100.00;98699.05;1684989;84;21011;-71
2022/11/16 18:49:25;;;;;;;3.85;2.70;;;;;;;1.54;100.00;98702.45;1681014;84;21668;-69
2022/11/16 18:51:51;;;;;;;4.37;2.60;;;;;;;1.57;100.00;98705.47;1686897;83;21023;-70
2022/11/16 18:54:17;;;;;;;3.83;2.80;;;;;;;1.46;100.00;98707.13;1669631;85;21118;-71
2022/11/16 18:56:44;;;;;;;3.80;2.65;;;;;;;1.47;100.00;98705.27;1670876;85;21063;-72
2022/11/16 18:59:10;;;;;;;3.92;2.37;;;;;;;1.42;100.00;98704.63;1676153;84;21040;-71
2022/11/16 19:01:36;;;;;;;3.47;2.50;;;;;;;1.37;100.00;98707.75;1675306;84;21095;-70
2022/11/16 19:04:07;;;;;;;;;;;;;;;1.40;100.00;98715.31;1665775;85;21549;-70
2022/11/16 19:06:34;;;;;;;3.45;2.30;;;;;;;1.23;100.00;98684.94;1667630;85;20912;-70
2022/11/16 19:09:03;;;;;;;;;;;;;;;1.27;100.00;98708.89;1674511;84;21118;-70
2022/11/16 19:11:30;;;;;;;3.45;2.00;;;;;;;1.25;100.00;98707.77;1672086;85;20112;-70
2022/11/16 19:14:03;;;;;;;;;;;;;;;1.22;100.00;98709.59;1675364;84;21003;-70
2022/11/16 19:16:30;;;;;;;3.58;2.10;;;;;;;1.18;100.00;98708.42;1681775;84;20108;-71
2022/11/16 19:18:57;;;;;;;2.85;2.10;;;;;;;1.14;100.00;98703.24;1682122;84;21582;-70
2022/11/16 19:21:23;;;;;;;3.47;2.45;;;;;;;1.11;100.00;98699.70;1689591;84;20998;-70
2022/11/16 19:23:53;;;;;;;2.70;1.95;;;;;;;1.10;100.00;98692.70;1679646;84;21515;-70
2022/11/16 19:26:22;;;;;;;3.30;2.20;;;;;;;1.09;100.00;98692.95;1685339;83;21039;-70
2022/11/16 19:28:49;;;;;;;2.65;2.08;;;;;;;1.10;100.00;98687.34;1685786;84;21000;-70
2022/11/16 19:31:29;;;;;;;3.37;2.20;;;;;;;1.07;100.00;98695.86;1686310;84;21020;-70
2022/11/16 19:33:58;;;;;;;4.72;2.27;;;;;;;1.11;100.00;98695.67;1684589;84;21015;-71
2022/11/16 19:36:25;;;;;;;2.65;1.95;;;;;;;1.12;100.00;98702.67;1683775;84;21062;-70
2022/11/16 19:38:52;;;;;;;3.27;2.30;;;;;;;1.14;100.00;98699.22;1686772;85;21024;-72
2022/11/16 19:41:21;;;;;;;;;;;;;;;1.20;100.00;98698.82;1687091;84;21133;-71
2022/11/16 19:43:51;;;;;;;2.92;2.20;;;;;;;1.20;100.00;98696.95;1683861;84;20144;-71
2022/11/16 19:46:22;;;;;;;3.75;2.70;;;;;;;1.13;100.00;98696.27;1681454;84;21120;-71
2022/11/16 19:48:48;;;;;;;3.20;2.30;;;;;;;1.13;100.00;98689.58;1684161;84;20942;-72
2022/11/16 19:51:17;;;;;;;3.12;2.20;;;;;;;1.13;100.00;98686.89;1619732;87;21028;-71
2022/11/16 19:53:44;;;;;;;3.75;2.45;;;;;;;1.19;100.00;98687.80;1638426;87;21027;-71
2022/11/16 19:56:13;;;;;;;2.80;2.30;;;;;;;1.17;100.00;98694.73;1639717;86;22093;-72
2022/11/16 19:58:43;;;;;;;3.33;2.62;;;;;;;1.21;100.00;98690.52;1641902;86;21016;-70
2022/11/16 20:01:23;;;;;;;3.17;2.30;;;;;;;1.22;100.00;98686.80;1639581;86;21117;-71
2022/11/16 20:03:50;;;;;;;3.10;2.52;;;;;;;1.22;100.00;98681.44;1640668;86;21006;-70
2022/11/16 20:06:28;;;;;;;3.33;2.40;;;;;;;1.26;100.00;98689.82;1632585;86;21059;-70
2022/11/16 20:08:55;;;;;;;;;;;;;;;1.21;100.00;98689.70;1635024;86;21502;-71
2022/11/16 20:11:23;;;;;;;;;;;;;;;1.23;100.00;98701.84;1636631;86;20136;-72
2022/11/16 20:13:51;;;;;;;3.00;2.12;;;;;;;1.08;100.00;98697.50;1632674;87;20437;-72
2022/11/16 20:16:21;;;;;;;5.05;2.62;;;;;;;1.08;100.00;98698.83;1632078;86;21067;-72
2022/11/16 20:18:47;;;;;;;3.20;2.20;;;;;;;1.05;100.00;98698.48;1687883;84;21002;-72
2022/11/16 20:21:20;;;;;;;3.67;2.52;;;;;;;1.06;100.00;98698.27;1682570;84;21052;-72
2022/11/16 20:23:47;;;;;;;3.67;2.50;;;;;;;1.09;100.00;98692.43;1627298;86;20991;-72
2022/11/16 20:26:14;;;;;;;;;;;;;;;1.05;100.00;98693.95;1684627;84;21449;-72
2022/11/16 20:28:42;;;;;;;3.02;2.05;;;;;;;1.12;100.00;98689.27;1666185;85;20274;-72
2022/11/16 20:31:15;;;;;;;3.67;2.25;;;;;;;1.14;100.00;98695.20;1675293;85;21622;-72
2022/11/16 20:33:53;;;;;;;3.85;2.35;;;;;;;1.17;100.00;98697.41;1679354;85;21072;-73
2022/11/16 20:36:21;;;;;;;3.10;2.12;;;;;;;1.17;100.00;98694.73;1676672;84;21058;-72
2022/11/16 20:38:48;;;;;;;3.83;2.22;;;;;;;1.20;100.00;98699.64;1671335;85;21488;-72
2022/11/16 20:41:16;;;;;;;4.30;2.60;;;;;;;1.20;100.00;98696.14;1674721;85;21644;-72
2022/11/16 20:43:44;;;;;;;3.45;2.50;;;;;;;1.21;100.00;98693.20;1674481;85;21455;-72
2022/11/16 20:46:12;;;;;;;;;;;;;;;1.24;100.00;98687.92;1679119;85;21064;-72
2022/11/16 20:48:39;;;;;;;3.35;2.15;;;;;;;1.27;100.00;98685.58;1673850;84;20390;-72
2022/11/16 20:51:07;;;;;;;2.77;2.30;;;;;;;1.16;100.00;98686.94;1669854;85;21063;-71
2022/11/16 20:53:34;;;;;;;3.02;2.15;;;;;;;1.22;100.00;98684.64;1696859;84;21486;-72
2022/11/16 20:56:03;;;;;;;2.50;2.00;;;;;;;1.16;100.00;98673.53;1686143;84;21116;-71
2022/11/16 20:58:30;;;;;;;2.85;2.12;;;;;;;1.20;100.00;98683.55;1678628;84;21061;-72
2022/11/16 21:01:05;;;;;;;3.98;2.37;;;;;;;1.18;100.00;98680.28;1672185;85;21585;-72
2022/11/16 21:03:33;;;;;;;3.08;2.05;;;;;;;1.20;100.00;98680.88;1650816;85;21021;-72
2022/11/16 21:06:00;;;;;;;3.67;2.30;;;;;;;1.21;100.00;98678.46;1659796;85;21093;-72
2022/11/16 21:08:28;;;;;;;3.35;2.33;;;;;;;1.21;100.00;98678.46;1675826;83;20994;-72
2022/11/16 21:10:55;;;;;;;2.70;1.70;;;;;;;1.21;100.00;98677.12;1684328;84;21044;-72
2022/11/16 21:16:11;;;;;;;2.83;1.90;;;;;;;1.18;100.00;98689.66;1663858;84;21035;-72
2022/11/16 21:18:39;;;;;;;3.08;2.27;;;;;;;1.18;100.00;98677.59;1663345;85;20986;-72
2022/11/16 21:21:11;;;;;;;3.42;2.22;;;;;;;1.15;100.00;98681.28;1645281;85;21035;-72
2022/11/16 21:23:41;;;;;;;3.72;2.35;;;;;;;1.14;100.00;98687.16;1677205;85;21034;-72
2022/11/16 21:26:13;;;;;;;2.87;2.12;;;;;;;1.14;100.00;98692.52;1668432;85;21580;-72
2022/11/16 21:28:43;;;;;;;3.58;2.05;;;;;;;1.06;100.00;98686.20;1664160;84;21508;-72
2022/11/16 21:31:11;;;;;;;3.20;2.15;;;;;;;1.09;100.00;98688.41;1674642;84;21142;-72
2022/11/16 21:33:38;;;;;;;3.15;2.10;;;;;;;1.11;100.00;98687.64;1664945;86;20963;-71
2022/11/16 21:36:09;;;;;;;3.98;2.27;;;;;;;1.11;100.00;98686.81;1670166;85;21566;-72
2022/11/16 21:38:37;;;;;;;2.85;2.10;;;;;;;1.12;100.00;98690.62;1666342;85;21018;-72
2022/11/16 21:41:05;;;;;;;;;;;;;;;1.14;100.00;98692.52;1663396;85;21688;-72
2022/11/16 21:43:39;;;;;;;3.35;2.10;;;;;;;1.18;100.00;98695.02;1660569;85;20122;-72
2022/11/16 21:46:08;;;;;;;4.00;2.20;;;;;;;1.07;100.00;98701.73;1655522;85;21055;-72
2022/11/16 21:48:37;;;;;;;3.10;2.17;;;;;;;1.13;100.00;98699.48;1651055;85;21501;-72
2022/11/16 21:51:11;;;;;;;4.47;2.65;;;;;;;1.19;100.00;98693.16;1668662;85;21482;-72
2022/11/16 21:53:38;;;;;;;2.77;1.80;;;;;;;1.18;100.00;98686.98;1652570;87;21023;-72
2022/11/16 21:56:06;;;;;;;3.20;2.37;;;;;;;1.26;100.00;98685.80;1652168;86;21083;-71
2022/11/16 21:58:32;;;;;;;3.30;2.12;;;;;;;1.27;100.00;98684.76;1655383;85;21462;-71
2022/11/16 22:01:00;;;;;;;2.70;1.90;;;;;;;1.28;100.00;98679.66;1657995;85;21059;-71
2022/11/16 22:03:28;;;;;;;4.37;1.72;;;;;;;1.31;100.00;98692.06;1650703;86;21501;-71
2022/11/16 22:08:42;;;;;;;2.65;1.75;;;;;;;1.32;100.00;98676.80;1657103;85;21006;-71
2022/11/16 22:11:09;;;;;;;2.50;1.60;;;;;;;1.28;100.00;98675.12;1650086;86;21134;-71
2022/11/16 22:13:36;;;;;;;;;;;;;;;1.31;100.00;98680.00;1653279;86;20959;-71
2022/11/16 22:16:11;;;;;;;3.67;1.62;;;;;;;1.29;100.00;98677.28;1667337;84;20503;-72
2022/11/16 22:18:39;;;;;;;2.45;1.80;;;;;;;1.24;100.00;98673.96;1686355;84;20984;-71
2022/11/16 22:21:05;;;;;;;2.37;1.70;;;;;;;1.20;100.00;98683.55;1686897;84;21123;-72
2022/11/16 22:23:32;;;;;;;;;;;;;;;1.14;100.00;98685.82;1684974;83;21008;-72
2022/11/16 22:26:06;;;;;;;1.82;1.20;;;;;;;1.21;100.00;98678.46;1684035;84;20140;-72
2022/11/16 22:28:33;;;;;;;2.02;1.20;;;;;;;1.19;100.00;98681.09;1676479;84;21019;-72
2022/11/16 22:31:14;;;;;;;1.95;1.25;;;;;;;1.11;100.00;98683.62;1678645;84;21073;-72
2022/11/16 22:33:41;;;;;;;2.30;1.75;;;;;;;1.14;100.00;98675.62;1640162;86;20988;-71
2022/11/16 22:36:09;;;;;;;1.98;1.20;;;;;;;1.09;100.00;98675.02;1638074;86;21407;-71
2022/11/16 22:38:35;;;;;;;2.22;1.50;;;;;;;1.11;100.00;98677.44;1642803;86;21083;-72
2022/11/16 22:41:02;;;;;;;2.33;1.20;;;;;;;1.12;100.00;98682.58;1680473;84;21405;-72
2022/11/16 22:43:29;;;;;;;2.27;1.52;;;;;;;1.07;100.00;98684.31;1646771;86;21055;-72
2022/11/16 22:45:58;;;;;;;;;;;;;;;1.04;100.00;98684.27;1640316;87;21067;-72
2022/11/16 22:48:32;;;;;;;2.20;1.30;;;;;;;1.00;100.00;98683.93;1666518;86;20117;-71
2022/11/16 22:51:20;;;;;;;2.02;1.20;;;;;;;0.95;100.00;98692.39;1678774;84;21072;-72
2022/11/16 22:53:47;;;;;;;2.72;1.10;;;;;;;0.94;100.00;98682.72;1680468;85;20981;-72